sensor_id;sensor_type;location;lat;lon;timestamp;pressure;altitude;pressure_sealevel;temperature;humidity
73105;BME280;61296;50.526;30.792;2023-10-13T00:02:11;99366.41;;;14.34;92.57
73105;BME280;61296;50.526;30.792;2023-10-13T00:17:35;99291.78;;;13.50;99.39
73105;BME280;61296;50.526;30.792;2023-10-13T00:32:59;99298.50;;;13.49;100.00
73105;BME280;61296;50.526;30.792;2023-10-13T00:48:18;99263.09;;;13.09;100.00
73105;BME280;61296;50.526;30.792;2023-10-13T01:03:38;99315.88;;;13.50;100.00
73105;BME280;61296;50.526;30.792;2023-10-13T01:18:59;99258.38;;;13.06;100.00
73105;BME280;61296;50.526;30.792;2023-10-13T01:34:19;99334.44;;;13.46;100.00
73105;BME280;61296;50.526;30.792;2023-10-13T01:49:41;99266.69;;;12.95;100.00
73105;BME280;61296;50.526;30.792;2023-10-13T02:05:01;99357.72;;;13.38;100.00
73105;BME280;61296;50.526;30.792;2023-10-13T02:20:21;99406.63;;;13.66;100.00
73105;BME280;61296;50.526;30.792;2023-10-13T02:35:45;99373.91;;;13.36;100.00
73105;BME280;61296;50.526;30.792;2023-10-13T02:51:15;99373.13;;;13.28;100.00
73105;BME280;61296;50.526;30.792;2023-10-13T03:06:35;99425.19;;;13.51;100.00
73105;BME280;61296;50.526;30.792;2023-10-13T03:21:54;99475.66;;;13.73;100.00
73105;BME280;61296;50.526;30.792;2023-10-13T03:37:15;99386.94;;;13.14;100.00
73105;BME280;61296;50.526;30.792;2023-10-13T03:52:39;99415.34;;;13.28;100.00
73105;BME280;61296;50.526;30.792;2023-10-13T04:08:02;99466.25;;;13.38;100.00
73105;BME280;61296;50.526;30.792;2023-10-13T04:23:42;99409.41;;;12.87;100.00
73105;BME280;61296;50.526;30.792;2023-10-13T04:39:22;99456.31;;;12.91;100.00
73105;BME280;61296;50.526;30.792;2023-10-13T04:54:54;99588.97;;;13.48;100.00
73105;BME280;61296;50.526;30.792;2023-10-13T05:10:14;99480.75;;;12.64;100.00
73105;BME280;61296;50.526;30.792;2023-10-13T05:25:59;99451.53;;;12.41;100.00
73105;BME280;61296;50.526;30.792;2023-10-13T05:41:40;99621.75;;;13.81;100.00
73105;BME280;61296;50.526;30.792;2023-10-13T05:57:18;99607.47;;;14.36;98.83
73105;BME280;61296;50.526;30.792;2023-10-13T06:13:01;99620.44;;;14.75;87.14
73105;BME280;61296;50.526;30.792;2023-10-13T06:28:40;99588.91;;;14.40;81.28
73105;BME280;61296;50.526;30.792;2023-10-13T06:43:59;99630.81;;;14.39;79.29
73105;BME280;61296;50.526;30.792;2023-10-13T06:59:19;99652.41;;;14.87;73.19
73105;BME280;61296;50.526;30.792;2023-10-13T07:14:39;99733.16;;;14.75;71.94
73105;BME280;61296;50.526;30.792;2023-10-13T07:29:59;99666.38;;;14.23;73.06
73105;BME280;61296;50.526;30.792;2023-10-13T07:45:37;99682.56;;;14.63;70.78
73105;BME280;61296;50.526;30.792;2023-10-13T08:01:00;99642.59;;;14.68;71.74
73105;BME280;61296;50.526;30.792;2023-10-13T08:16:31;99652.47;;;14.72;67.75
73105;BME280;61296;50.526;30.792;2023-10-13T08:32:13;99738.94;;;15.19;68.68
73105;BME280;61296;50.526;30.792;2023-10-13T08:47:43;99725.56;;;15.04;68.05
73105;BME280;61296;50.526;30.792;2023-10-13T09:03:13;99771.28;;;15.54;68.96
73105;BME280;61296;50.526;30.792;2023-10-13T09:18:49;99815.13;;;15.81;66.31
73105;BME280;61296;50.526;30.792;2023-10-13T09:34:19;99772.88;;;15.48;67.55
73105;BME280;61296;50.526;30.792;2023-10-13T09:49:43;99744.44;;;15.30;69.16
73105;BME280;61296;50.526;30.792;2023-10-13T10:05:12;99796.09;;;15.86;63.79
73105;BME280;61296;50.526;30.792;2023-10-13T10:20:44;99698.19;;;15.20;63.95
73105;BME280;61296;50.526;30.792;2023-10-13T10:36:07;99770.69;;;15.92;63.39
73105;BME280;61296;50.526;30.792;2023-10-13T10:51:33;99727.00;;;15.40;63.27
73105;BME280;61296;50.526;30.792;2023-10-13T11:07:02;99687.47;;;15.25;61.23
73105;BME280;61296;50.526;30.792;2023-10-13T11:22:37;99799.22;;;15.96;62.14
73105;BME280;61296;50.526;30.792;2023-10-13T11:38:06;99724.13;;;15.58;60.96
73105;BME280;61296;50.526;30.792;2023-10-13T11:53:42;99741.84;;;15.82;60.36
73105;BME280;61296;50.526;30.792;2023-10-13T12:09:07;99686.03;;;15.73;59.75
73105;BME280;61296;50.526;30.792;2023-10-13T12:24:41;99669.03;;;15.74;58.60
73105;BME280;61296;50.526;30.792;2023-10-13T12:40:10;99766.44;;;16.35;57.55
73105;BME280;61296;50.526;30.792;2023-10-13T12:55:50;99786.88;;;16.59;56.54
73105;BME280;61296;50.526;30.792;2023-10-13T13:11:11;99785.81;;;16.42;57.00
73105;BME280;61296;50.526;30.792;2023-10-13T13:26:30;99686.34;;;15.89;55.70
73105;BME280;61296;50.526;30.792;2023-10-13T13:41:57;99694.66;;;15.89;55.42
73105;BME280;61296;50.526;30.792;2023-10-13T13:57:44;99708.97;;;15.80;55.21
73105;BME280;61296;50.526;30.792;2023-10-13T14:13:08;99700.44;;;15.46;55.87
73105;BME280;61296;50.526;30.792;2023-10-13T14:28:35;99723.44;;;15.36;57.13
73105;BME280;61296;50.526;30.792;2023-10-13T14:43:58;99722.34;;;15.23;56.89
73105;BME280;61296;50.526;30.792;2023-10-13T14:59:24;99778.88;;;15.36;57.19
73105;BME280;61296;50.526;30.792;2023-10-13T15:14:43;99716.97;;;14.69;58.52
73105;BME280;61296;50.526;30.792;2023-10-13T15:30:03;99724.09;;;14.28;59.26
73105;BME280;61296;50.526;30.792;2023-10-13T15:45:24;99740.66;;;14.10;59.14
73105;BME280;61296;50.526;30.792;2023-10-13T16:00:58;99756.09;;;14.07;58.60
73105;BME280;61296;50.526;30.792;2023-10-13T16:16:32;99738.66;;;13.89;58.59
73105;BME280;61296;50.526;30.792;2023-10-13T16:31:53;99824.06;;;14.40;58.44
73105;BME280;61296;50.526;30.792;2023-10-13T16:47:13;99761.56;;;13.86;58.47
73105;BME280;61296;50.526;30.792;2023-10-13T17:18:17;99842.50;;;13.79;59.60
73105;BME280;61296;50.526;30.792;2023-10-13T17:33:40;99773.22;;;13.33;59.75
73105;BME280;61296;50.526;30.792;2023-10-13T17:49:00;99806.84;;;13.53;61.37
73105;BME280;61296;50.526;30.792;2023-10-13T18:04:24;99767.50;;;13.01;63.30
73105;BME280;61296;50.526;30.792;2023-10-13T18:19:43;99837.19;;;13.39;62.60
73105;BME280;61296;50.526;30.792;2023-10-13T18:51:43;99783.34;;;11.71;70.78
73105;BME280;61296;50.526;30.792;2023-10-13T19:23:16;99870.94;;;11.59;74.16
73105;BME280;61296;50.526;30.792;2023-10-13T19:56:12;99840.56;;;10.95;78.13
73105;BME280;61296;50.526;30.792;2023-10-13T20:28:11;99791.41;;;10.67;78.57
73105;BME280;61296;50.526;30.792;2023-10-13T20:59:51;99757.06;;;9.89;80.88
73105;BME280;61296;50.526;30.792;2023-10-13T21:15:55;99744.50;;;9.68;82.60
73105;BME280;61296;50.526;30.792;2023-10-13T21:32:22;99734.00;;;9.93;80.50
73105;BME280;61296;50.526;30.792;2023-10-13T21:48:25;99852.53;;;10.83;79.50
73105;BME280;61296;50.526;30.792;2023-10-13T22:21:51;99713.66;;;9.98;76.69
73105;BME280;61296;50.526;30.792;2023-10-13T22:37:11;99693.50;;;9.67;77.82
73105;BME280;61296;50.526;30.792;2023-10-13T22:52:30;99817.22;;;10.17;79.14
73105;BME280;61296;50.526;30.792;2023-10-13T23:07:50;99822.72;;;10.17;78.89
73105;BME280;61296;50.526;30.792;2023-10-13T23:23:19;99768.03;;;9.89;78.43
73105;BME280;61296;50.526;30.792;2023-10-13T23:38:44;99756.84;;;9.78;78.84
73105;BME280;61296;50.526;30.792;2023-10-13T23:54:18;99748.41;;;9.67;78.83
